createdAt,value
2023-03-16T00:00:22.848Z,-3.46
2023-03-16T00:03:51.307Z,-3.08
2023-03-16T00:07:20.494Z,-2.46
2023-03-16T00:10:28.310Z,-2.58
2023-03-16T00:13:37.334Z,-2.34
2023-03-16T00:17:09.559Z,-1.85
2023-03-16T00:20:51.228Z,-1.40
2023-03-16T00:27:32.899Z,-0.73
2023-03-16T00:37:45.524Z,-1.20
2023-03-16T00:41:39.305Z,-2.32
2023-03-16T00:45:08.968Z,-3.42
2023-03-16T00:48:48.418Z,-4.12
2023-03-16T00:51:55.754Z,-4.49
2023-03-16T00:55:04.978Z,-4.76
2023-03-16T00:58:59.684Z,-4.84
2023-03-16T01:02:12.667Z,-5.18
2023-03-16T01:08:42.932Z,-5.12
2023-03-16T01:11:55.384Z,-5.19
2023-03-16T01:15:05.665Z,-5.08
2023-03-16T01:18:09.965Z,-5.07
2023-03-16T01:21:16.546Z,-4.84
2023-03-16T01:24:45.892Z,-4.62
2023-03-16T01:28:14.645Z,-4.74
2023-03-16T01:31:35.122Z,-4.46
2023-03-16T01:35:03.514Z,-4.26
2023-03-16T01:38:07.472Z,-4.18
2023-03-16T01:41:15.155Z,-4.11
2023-03-16T01:44:23.304Z,-4.08
2023-03-16T01:47:39.053Z,-3.84
2023-03-16T01:50:49.820Z,-3.64
2023-03-16T01:54:02.694Z,-3.58
2023-03-16T01:57:17.083Z,-3.43
2023-03-16T02:00:46.884Z,-3.49
2023-03-16T02:04:27.916Z,-3.55
2023-03-16T02:08:25.374Z,-3.55
2023-03-16T02:11:30.823Z,-3.76
2023-03-16T02:14:52.154Z,-3.79
2023-03-16T02:18:02.419Z,-3.95
2023-03-16T02:21:26.704Z,-4.05
2023-03-16T02:28:10.622Z,-3.83
2023-03-16T02:31:23.244Z,-3.83
2023-03-16T02:34:28.435Z,-3.73
2023-03-16T02:37:34.753Z,-3.66
2023-03-16T02:40:48.422Z,-3.49
2023-03-16T02:44:15.944Z,-3.25
2023-03-16T02:47:56.872Z,-3.14
2023-03-16T02:51:00.525Z,-3.16
2023-03-16T03:01:22.096Z,-2.65
2023-03-16T03:04:33.901Z,-2.49
2023-03-16T03:07:38.245Z,-2.44
2023-03-16T03:11:09.568Z,-2.27
2023-03-16T03:14:41.545Z,-2.14
2023-03-16T03:17:53.974Z,-2.10
2023-03-16T03:28:01.287Z,-2.20
2023-03-16T03:31:05.120Z,-2.03
2023-03-16T03:34:24.898Z,-2.08
2023-03-16T03:37:55.295Z,-1.97
2023-03-16T03:41:02.084Z,-1.80
2023-03-16T03:44:14.595Z,-1.80
2023-03-16T03:47:58.278Z,-1.66
2023-03-16T03:51:02.564Z,-1.66
2023-03-16T03:54:38.727Z,-1.48
2023-03-16T03:57:46.521Z,-1.37
2023-03-16T04:00:50.548Z,-1.38
2023-03-16T04:07:12.562Z,-1.37
2023-03-16T04:10:17.436Z,-1.27
2023-03-16T04:13:32.891Z,-1.34
2023-03-16T04:16:37.277Z,-1.21
2023-03-16T04:19:53.649Z,-1.24
2023-03-16T04:23:36.015Z,-1.21
2023-03-16T04:26:52.658Z,-1.15
2023-03-16T04:30:00.411Z,-1.10
2023-03-16T04:33:06.415Z,-0.92
2023-03-16T04:36:17.612Z,-0.73
2023-03-16T04:39:23.586Z,-0.57
2023-03-16T04:43:30.249Z,-0.48
2023-03-16T04:46:53.558Z,-0.47
2023-03-16T04:49:59.262Z,-0.55
2023-03-16T04:53:03.212Z,-0.41
2023-03-16T04:56:25.121Z,-0.30
2023-03-16T04:59:37.798Z,-0.15
2023-03-16T05:02:53.001Z,-0.02
2023-03-16T05:06:02.296Z,-0.07
2023-03-16T05:09:27.270Z,-0.04
2023-03-16T05:12:34.313Z,0.13
2023-03-16T05:15:46.927Z,0.14
2023-03-16T05:19:10.632Z,0.17
2023-03-16T05:22:18.084Z,0.28
2023-03-16T05:26:10.096Z,0.51
2023-03-16T05:29:15.635Z,0.59
2023-03-16T05:32:52.909Z,0.66
2023-03-16T05:36:05.984Z,0.70
2023-03-16T05:40:05.111Z,0.75
2023-03-16T05:43:12.487Z,0.77
2023-03-16T05:46:33.814Z,0.89
2023-03-16T05:50:09.947Z,0.91
2023-03-16T05:53:20.066Z,0.89
2023-03-16T05:56:30.972Z,0.96
2023-03-16T05:59:49.640Z,1.08
2023-03-16T06:03:28.154Z,1.11
2023-03-16T06:06:43.466Z,1.01
2023-03-16T06:10:27.716Z,0.91
2023-03-16T06:13:58.783Z,0.97
2023-03-16T06:17:33.943Z,1.08
2023-03-16T06:20:40.649Z,1.04
2023-03-16T06:34:29.374Z,1.20
2023-03-16T06:37:37.799Z,1.24
2023-03-16T06:41:02.607Z,1.32
2023-03-16T06:51:50.736Z,1.45
2023-03-16T06:55:10.172Z,1.42
2023-03-16T06:58:24.022Z,1.36
2023-03-16T07:01:48.219Z,1.31
2023-03-16T07:04:55.221Z,1.34
2023-03-16T07:08:40.369Z,1.53
2023-03-16T07:12:10.673Z,1.64
2023-03-16T07:15:15.165Z,1.67
2023-03-16T07:18:45.492Z,1.81
2023-03-16T07:21:54.840Z,1.67
2023-03-16T07:25:13.435Z,1.59
2023-03-16T07:28:34.752Z,1.63
2023-03-16T07:56:17.852Z,1.93
2023-03-16T07:59:28.308Z,1.98
2023-03-16T08:02:52.630Z,2.03
2023-03-16T08:06:13.568Z,1.98
2023-03-16T08:09:48.407Z,2.13
2023-03-16T08:13:13.215Z,2.03
2023-03-16T08:16:49.076Z,2.04
2023-03-16T08:20:35.553Z,2.06
2023-03-16T08:23:41.803Z,2.13
2023-03-16T08:26:49.007Z,2.21
2023-03-16T08:29:54.421Z,2.28
2023-03-16T08:33:17.768Z,2.28
2023-03-16T08:36:25.178Z,2.34
2023-03-16T08:39:55.091Z,2.44
2023-03-16T08:43:05.636Z,2.49
2023-03-16T08:46:28.153Z,2.39
2023-03-16T08:49:38.489Z,2.29
2023-03-16T08:56:33.286Z,2.26
2023-03-16T08:59:38.056Z,2.24
2023-03-16T09:03:28.810Z,2.04
2023-03-16T09:07:08.969Z,1.90
2023-03-16T09:10:24.037Z,1.80
2023-03-16T09:13:41.069Z,1.73
2023-03-16T09:16:49.305Z,1.67
2023-03-16T09:28:26.072Z,1.43
2023-03-16T09:31:32.949Z,1.41
2023-03-16T09:42:18.133Z,1.30
2023-03-16T09:45:45.824Z,1.32
2023-03-16T09:49:17.981Z,1.27
2023-03-16T09:52:32.956Z,1.17
2023-03-16T09:56:09.244Z,1.08
2023-03-16T09:59:19.454Z,0.98
2023-03-16T10:02:32.576Z,0.94
2023-03-16T10:05:42.530Z,0.86
2023-03-16T10:09:18.615Z,0.83
2023-03-16T10:12:24.102Z,0.70
2023-03-16T10:15:34.196Z,0.65
2023-03-16T10:19:20.468Z,0.56
2023-03-16T10:22:41.012Z,0.51
2023-03-16T10:25:58.061Z,0.46
2023-03-16T10:29:32.624Z,0.48
2023-03-16T10:32:50.523Z,0.48
2023-03-16T10:36:20.141Z,0.48
2023-03-16T10:39:37.327Z,0.38
2023-03-16T10:42:44.807Z,0.34
2023-03-16T10:46:03.268Z,0.26
2023-03-16T10:49:21.641Z,0.18
2023-03-16T10:52:43.485Z,0.11
2023-03-16T10:56:23.473Z,-0.02
2023-03-16T10:59:52.814Z,-0.07
2023-03-16T11:03:00.552Z,-0.20
2023-03-16T11:06:33.258Z,-0.32
2023-03-16T11:10:26.488Z,-0.42
2023-03-16T11:13:39.364Z,-0.52
2023-03-16T11:17:20.648Z,-0.57
2023-03-16T11:20:31.750Z,-0.61
2023-03-16T11:23:38.623Z,-0.62
2023-03-16T11:27:00.732Z,-0.61
2023-03-16T11:31:00.131Z,-0.64
2023-03-16T11:34:03.715Z,-0.69
2023-03-16T11:37:43.813Z,-0.73
2023-03-16T11:41:04.705Z,-0.80
2023-03-16T11:48:21.448Z,-0.92
2023-03-16T11:52:02.246Z,-0.90
2023-03-16T11:55:26.868Z,-0.90
2023-03-16T11:59:03.607Z,-0.87
2023-03-16T12:02:47.584Z,-0.89
2023-03-16T12:06:23.190Z,-0.89
2023-03-16T12:10:09.541Z,-0.86
2023-03-16T12:17:47.057Z,-0.92
2023-03-16T12:21:49.219Z,-0.94
2023-03-16T12:34:11.737Z,-1.10
2023-03-16T12:38:08.515Z,-1.11
2023-03-16T12:41:58.748Z,-1.13
2023-03-16T12:45:32.851Z,-1.24
2023-03-16T12:52:15.594Z,-1.34
2023-03-16T12:56:05.493Z,-1.40
2023-03-16T12:59:26.218Z,-1.48
2023-03-16T13:03:19.987Z,-1.58
2023-03-16T13:06:27.889Z,-1.63
2023-03-16T13:09:50.323Z,-1.66
2023-03-16T13:13:08.272Z,-1.76
2023-03-16T13:16:28.143Z,-1.79
2023-03-16T13:19:33.729Z,-1.82
2023-03-16T13:22:48.327Z,-1.86
2023-03-16T13:26:07.903Z,-1.90
2023-03-16T13:29:37.158Z,-1.90
2023-03-16T13:32:42.646Z,-1.90
2023-03-16T13:35:52.142Z,-1.90
2023-03-16T13:39:07.864Z,-1.87
2023-03-16T13:42:33.349Z,-1.85
2023-03-16T13:45:57.201Z,-1.85
2023-03-16T13:49:21.546Z,-1.91
2023-03-16T13:53:20.114Z,-1.90
2023-03-16T13:57:36.930Z,-1.91
2023-03-16T14:01:20.513Z,-2.00
2023-03-16T14:08:50.555Z,-2.07
2023-03-16T14:12:19.317Z,-2.11
2023-03-16T14:15:48.750Z,-2.11
2023-03-16T14:19:20.081Z,-2.15
2023-03-16T14:23:15.466Z,-2.20
2023-03-16T14:26:58.747Z,-2.24
2023-03-16T14:30:16.116Z,-2.25
2023-03-16T14:33:51.501Z,-2.28
2023-03-16T14:37:11.902Z,-2.31
2023-03-16T14:40:31.775Z,-2.32
2023-03-16T14:47:33.649Z,-2.32
2023-03-16T14:50:38.296Z,-2.32
2023-03-16T14:54:25.926Z,-2.38
2023-03-16T14:58:21.794Z,-2.42
2023-03-16T15:01:35.066Z,-2.48
2023-03-16T15:04:38.993Z,-2.49
2023-03-16T15:07:55.040Z,-2.53
2023-03-16T15:11:08.171Z,-2.58
2023-03-16T15:14:35.997Z,-2.63
2023-03-16T15:17:47.386Z,-2.68
2023-03-16T15:20:54.589Z,-2.73
2023-03-16T15:24:01.657Z,-2.75
2023-03-16T15:27:35.234Z,-2.73
2023-03-16T15:30:45.667Z,-2.79
2023-03-16T15:33:52.299Z,-2.75
2023-03-16T15:37:02.218Z,-2.84
2023-03-16T15:40:18.473Z,-2.86
2023-03-16T15:43:39.888Z,-2.87
2023-03-16T15:50:25.600Z,-2.94
2023-03-16T15:54:07.785Z,-2.94
2023-03-16T15:57:32.307Z,-3.00
2023-03-16T16:00:45.220Z,-3.09
2023-03-16T16:04:41.050Z,-3.14
2023-03-16T16:08:35.665Z,-3.19
2023-03-16T16:12:55.619Z,-3.19
2023-03-16T16:16:21.253Z,-3.27
2023-03-16T16:19:28.265Z,-3.31
2023-03-16T16:22:48.437Z,-3.31
2023-03-16T16:26:10.482Z,-3.32
2023-03-16T16:29:36.415Z,-3.36
2023-03-16T16:32:42.646Z,-3.35
2023-03-16T16:36:20.595Z,-3.35
2023-03-16T16:39:25.223Z,-3.38
2023-03-16T16:42:30.970Z,-3.43
2023-03-16T16:46:00.938Z,-3.48
2023-03-16T16:49:30.936Z,-3.53
2023-03-16T16:52:34.683Z,-3.56
2023-03-16T16:56:08.110Z,-3.58
2023-03-16T16:59:26.023Z,-3.58
2023-03-16T17:02:42.211Z,-3.48
2023-03-16T17:05:46.010Z,-3.42
2023-03-16T17:08:55.761Z,-3.42
2023-03-16T17:12:02.147Z,-3.41
2023-03-16T17:15:29.812Z,-3.41
2023-03-16T17:18:47.893Z,-3.42
2023-03-16T17:21:58.179Z,-3.45
2023-03-16T17:25:01.951Z,-3.48
2023-03-16T17:28:11.127Z,-3.48
2023-03-16T17:31:24.504Z,-3.51
2023-03-16T17:34:30.270Z,-3.52
2023-03-16T17:37:34.147Z,-3.48
2023-03-16T17:40:41.535Z,-3.52
2023-03-16T17:44:08.200Z,-3.49
2023-03-16T17:47:23.617Z,-3.55
2023-03-16T17:50:34.868Z,-3.53
2023-03-16T17:53:40.776Z,-3.55
2023-03-16T17:56:44.795Z,-3.53
2023-03-16T17:59:48.929Z,-3.63
2023-03-16T18:02:58.183Z,-3.70
2023-03-16T18:06:05.276Z,-3.77
2023-03-16T18:09:10.562Z,-3.79
2023-03-16T18:12:15.220Z,-3.80
2023-03-16T18:15:25.192Z,-3.81
2023-03-16T18:18:32.521Z,-3.83
2023-03-16T18:21:54.776Z,-3.88
2023-03-16T18:24:58.665Z,-3.88
2023-03-16T18:28:03.128Z,-3.90
2023-03-16T18:31:28.040Z,-3.91
2023-03-16T18:34:38.765Z,-3.88
2023-03-16T18:37:45.747Z,-3.91
2023-03-16T18:44:32.647Z,-3.98
2023-03-16T18:47:36.705Z,-3.98
2023-03-16T18:50:45.819Z,-3.97
2023-03-16T18:54:15.075Z,-3.88
2023-03-16T18:57:33.319Z,-3.93
2023-03-16T19:00:37.088Z,-3.98
2023-03-16T19:03:52.798Z,-4.07
2023-03-16T19:07:33.730Z,-4.08
2023-03-16T19:11:19.291Z,-4.02
2023-03-16T19:14:32.027Z,-4.09
2023-03-16T19:17:38.749Z,-4.11
2023-03-16T19:20:44.260Z,-4.15
2023-03-16T19:24:27.800Z,-4.16
2023-03-16T19:27:44.673Z,-4.16
2023-03-16T19:30:58.318Z,-4.16
2023-03-16T19:34:05.145Z,-4.21
2023-03-16T19:37:10.893Z,-4.16
2023-03-16T19:40:39.512Z,-4.19
2023-03-16T19:44:14.636Z,-4.18
2023-03-16T19:47:33.239Z,-4.16
2023-03-16T19:50:39.764Z,-4.11
2023-03-16T19:53:46.362Z,-4.15
2023-03-16T19:56:56.812Z,-4.09
2023-03-16T20:00:07.498Z,-4.05
2023-03-16T20:04:04.903Z,-4.09
2023-03-16T20:07:18.452Z,-4.14
2023-03-16T20:10:49.990Z,-4.18
2023-03-16T20:14:24.827Z,-4.18
2023-03-16T20:17:33.718Z,-4.22
2023-03-16T20:21:02.880Z,-4.28
2023-03-16T20:24:17.760Z,-4.28
2023-03-16T20:27:26.334Z,-4.29
2023-03-16T20:30:30.953Z,-4.29
2023-03-16T20:33:34.654Z,-4.30
2023-03-16T20:36:44.458Z,-4.32
2023-03-16T20:39:48.632Z,-4.35
2023-03-16T20:42:54.874Z,-4.41
2023-03-16T20:46:03.267Z,-4.41
2023-03-16T20:56:25.211Z,-4.52
2023-03-16T20:59:30.989Z,-4.56
2023-03-16T21:02:36.463Z,-4.60
2023-03-16T21:05:41.062Z,-4.63
2023-03-16T21:08:44.550Z,-4.69
2023-03-16T21:11:49.291Z,-4.71
2023-03-16T21:14:53.669Z,-4.74
2023-03-16T21:18:01.624Z,-4.79
2023-03-16T21:21:05.467Z,-4.77
2023-03-16T21:24:09.436Z,-4.79
2023-03-16T21:27:23.060Z,-4.81
2023-03-16T21:30:36.098Z,-4.84
2023-03-16T21:41:18.567Z,-4.83
2023-03-16T21:47:52.237Z,-4.88
2023-03-16T21:50:58.794Z,-4.92
2023-03-16T21:54:02.481Z,-4.94
2023-03-16T21:57:24.356Z,-4.98
2023-03-16T22:00:34.166Z,-5.01
2023-03-16T22:04:05.214Z,-5.04
2023-03-16T22:07:13.732Z,-5.09
2023-03-16T22:10:42.892Z,-5.09
2023-03-16T22:14:27.916Z,-5.12
2023-03-16T22:17:34.058Z,-5.16
2023-03-16T22:20:52.852Z,-5.12
2023-03-16T22:23:58.747Z,-5.12
2023-03-16T22:27:06.592Z,-5.13
2023-03-16T22:30:25.638Z,-5.13
2023-03-16T22:33:35.805Z,-5.19
2023-03-16T22:36:42.917Z,-5.20
2023-03-16T22:45:52.005Z,-5.23
2023-03-16T22:49:01.807Z,-5.23
2023-03-16T23:12:19.901Z,-5.07
2023-03-16T23:12:56.139Z,-5.01
2023-03-16T23:25:16.499Z,-4.53
2023-03-16T23:28:25.618Z,-4.30
2023-03-16T23:31:48.616Z,-3.64
